.
WxDataArchive / Data Records for 2010-08-20
2010-08-19 August 2010 2010-08-21

Data Records for Friday, 20 August 2010

Time	Temp	Chill	HIndex	Humid	Dewpt	 Wind 	HiWind	WindDir	Rain 	Barom 
-----	----	-----	------	-----	-----	------	------	-------	-----	----- 
00:00	70.4	70.4	70.4	82	64.6	0	0	---	0.00	29.924 
00:05	70.3	70.3	70.3	82	64.5	0	0	---	0.00	29.924 
00:10	70.3	70.3	70.3	83	64.9	0	0	---	0.00	29.924 
00:15	70.1	70.1	70.1	83	64.7	0	0	---	0.00	29.923 
00:20	69.9	69.9	69.9	84	64.8	0	0	---	0.00	29.923 
00:25	69.9	69.9	69.9	84	64.8	0	0	---	0.00	29.923 
00:30	69.8	69.8	69.8	84	64.7	0	0	---	0.00	29.923 
00:35	69.8	69.8	69.8	84	64.7	0	0	---	0.00	29.923 
00:40	69.6	69.6	69.6	84	64.5	0	0	---	0.00	29.923 
00:45	69.4	69.4	69.4	85	64.7	0	0	---	0.00	29.924 
00:50	69.4	69.4	69.4	85	64.7	0	0	---	0.00	29.924 
00:55	69.3	69.3	69.3	86	64.9	0	0	---	0.00	29.924 
01:00	69.1	69.1	69.1	86	64.7	0	0	---	0.00	29.930 
01:05	69.1	69.1	69.1	87	65.1	0	0	---	0.00	29.930 
01:10	68.9	68.9	68.9	87	64.9	0	0	---	0.00	29.930 
01:15	68.9	68.9	68.9	87	64.9	0	0	---	0.00	29.928 
01:20	68.8	68.8	68.8	87	64.8	0	0	---	0.00	29.928 
01:25	68.6	68.6	68.6	88	64.9	0	0	---	0.00	29.928 
01:30	68.6	68.6	68.6	88	64.9	0	0	---	0.00	29.930 
01:35	68.6	68.6	68.6	88	64.9	0	0	---	0.00	29.930 
01:40	68.4	68.4	68.4	88	64.7	0	0	---	0.00	29.930 
01:45	68.4	68.4	68.4	88	64.7	0	0	---	0.00	29.933 
01:50	68.4	68.4	68.4	89	65.0	0	0	---	0.00	29.933 
01:55	68.4	68.4	68.4	89	65.0	0	0	---	0.00	29.933 
02:00	68.4	68.4	68.4	89	65.0	0	0	---	0.00	29.931 
02:05	68.3	68.3	68.3	90	65.2	0	0	---	0.00	29.931 
02:10	68.3	68.3	68.3	90	65.2	0	0	---	0.00	29.931 
02:15	68.1	68.1	68.1	90	65.0	0	0	---	0.00	29.934 
02:20	68.1	68.1	68.1	90	65.0	0	0	---	0.00	29.934 
02:25	68.1	68.1	68.1	90	65.0	0	0	---	0.00	29.934 
02:30	67.9	67.9	67.9	90	64.9	0	0	---	0.00	29.928 
02:35	67.9	67.9	67.9	90	64.9	0	0	---	0.00	29.928 
02:40	67.8	67.8	67.8	91	65.1	0	0	---	0.00	29.928 
02:45	67.8	67.8	67.8	91	65.1	0	0	---	0.00	29.927 
02:50	67.6	67.6	67.6	91	64.9	0	0	---	0.00	29.927 
02:55	67.6	67.6	67.6	91	64.9	0	0	---	0.00	29.927 
03:00	67.6	67.6	67.6	91	64.9	0	0	---	0.00	29.926 
03:05	67.6	67.6	67.6	91	64.9	0	0	---	0.00	29.926 
03:10	67.6	67.6	67.6	91	64.9	0	0	---	0.00	29.926 
03:15	67.4	67.4	67.4	91	64.7	0	0	---	0.00	29.923 
03:20	67.4	67.4	67.4	91	64.7	0	0	---	0.00	29.923 
03:25	67.4	67.4	67.4	92	65.0	0	0	---	0.00	29.923 
03:30	67.3	67.3	67.3	92	64.9	0	0	---	0.00	29.920 
03:35	67.3	67.3	67.3	92	64.9	0	0	---	0.00	29.920 
03:40	67.3	67.3	67.3	92	64.9	0	0	---	0.00	29.920 
03:45	67.1	67.1	67.1	92	64.7	0	0	---	0.00	29.922 
03:50	67.1	67.1	67.1	92	64.7	0	0	---	0.00	29.922 
03:55	67.1	67.1	67.1	92	64.7	0	0	---	0.00	29.922 
04:00	66.9	66.9	66.9	92	64.5	0	0	---	0.00	29.925 
04:05	66.9	66.9	66.9	92	64.5	0	0	---	0.00	29.925 
04:10	66.8	66.8	66.8	92	64.4	0	0	---	0.00	29.925 
04:15	66.8	66.8	66.8	92	64.4	0	0	---	0.00	29.922 
04:20	66.8	66.8	66.8	92	64.4	0	0	---	0.00	29.922 
04:25	66.8	66.8	66.8	92	64.4	0	0	---	0.00	29.922 
04:30	66.8	66.8	66.8	92	64.4	0	0	---	0.00	29.921 
04:35	66.8	66.8	66.8	92	64.4	0	0	---	0.00	29.921 
04:40	66.6	66.6	66.6	92	64.2	0	0	---	0.00	29.921 
04:45	66.6	66.6	66.6	92	64.2	0	0	---	0.00	29.917 
04:50	66.6	66.6	66.6	93	64.5	0	0	---	0.00	29.917 
04:55	66.4	66.4	66.4	93	64.3	0	0	---	0.00	29.917 
05:00	66.4	66.4	66.4	93	64.3	0	0	---	0.00	29.914 
05:05	66.4	66.4	66.4	93	64.3	0	0	---	0.00	29.914 
05:10	66.3	66.3	66.3	93	64.2	0	0	---	0.00	29.914 
05:15	66.3	66.3	66.3	93	64.2	0	0	---	0.00	29.921 
05:20	66.3	66.3	66.3	93	64.2	0	0	---	0.00	29.921 
05:25	66.3	66.3	66.3	93	64.2	0	0	---	0.00	29.921 
05:30	66.1	66.1	66.1	93	64.0	0	0	---	0.00	29.926 
05:35	66.1	66.1	66.1	93	64.0	0	0	---	0.00	29.926 
05:40	66.0	66.0	66.0	93	63.9	0	0	---	0.00	29.926 
05:45	66.0	66.0	66.0	93	63.9	0	0	---	0.00	29.926 
05:50	66.1	66.1	66.1	93	64.0	0	0	---	0.00	29.926 
05:55	66.0	66.0	66.0	94	64.2	0	0	---	0.00	29.926 
06:00	66.1	66.1	66.1	94	64.3	0	0	---	0.00	29.928 
06:05	66.1	66.1	66.1	94	64.3	0	0	---	0.00	29.928 
06:10	66.0	66.0	66.0	94	64.2	0	0	---	0.00	29.928 
06:15	66.0	66.0	66.0	94	64.2	0	0	---	0.00	29.933 
06:20	66.0	66.0	66.0	94	64.2	0	0	---	0.00	29.933 
06:25	66.1	66.1	66.1	94	64.3	0	0	---	0.00	29.933 
06:30	66.1	66.1	66.1	94	64.3	0	0	---	0.00	29.937 
06:35	66.0	66.0	66.0	94	64.2	0	0	---	0.00	29.937 
06:40	66.0	66.0	66.0	94	64.2	0	0	---	0.00	29.937 
06:45	65.8	65.8	65.8	94	64.0	0	0	---	0.00	29.939 
06:50	65.6	65.6	65.6	94	63.8	0	0	---	0.00	29.939 
06:55	65.6	65.6	65.6	94	63.8	0	0	---	0.00	29.939 
07:00	65.6	65.6	65.6	94	63.8	0	0	---	0.00	29.945 
07:05	65.6	65.6	65.6	94	63.8	0	0	---	0.00	29.945 
07:10	65.6	65.6	65.6	94	63.8	0	0	---	0.00	29.945 
07:15	65.6	65.6	65.6	94	63.8	0	0	---	0.00	29.950 
07:20	65.6	65.6	65.6	94	63.8	0	0	---	0.00	29.950 
07:25	65.8	65.8	65.8	94	64.0	0	0	---	0.00	29.950 
07:30	66.0	66.0	66.0	94	64.2	0	0	---	0.00	29.957 
07:35	66.1	66.1	66.1	94	64.3	0	0	---	0.00	29.957 
07:40	66.3	66.3	66.3	95	64.8	0	0	---	0.00	29.957 
07:45	66.4	66.4	66.4	94	64.6	0	0	---	0.00	29.956 
07:50	66.6	66.6	66.6	94	64.8	0	0	---	0.00	29.956 
07:55	66.8	66.8	66.8	94	65.0	0	0	---	0.00	29.956 
08:00	67.1	67.1	67.1	94	65.3	0	0	---	0.00	29.957 
08:05	67.4	67.4	67.4	93	65.3	0	0	---	0.00	29.957 
08:10	67.9	67.9	67.9	92	65.5	0	0	---	0.00	29.957 
08:15	68.4	68.4	68.4	91	65.7	0	0	---	0.00	29.962 
08:20	68.9	68.9	68.9	89	65.5	0	1	270	0.00	29.962 
08:25	69.6	69.6	69.6	87	65.6	0	0	---	0.00	29.962 
08:30	70.1	70.1	70.1	85	65.4	0	1	270	0.00	29.962 
08:35	70.8	70.8	70.8	83	65.4	0	0	---	0.00	29.962 
08:40	71.5	71.5	71.5	81	65.4	0	0	---	0.00	29.962 
08:45	72.1	72.1	72.1	80	65.6	0	0	---	0.00	29.964 
08:50	73.0	73.0	73.0	78	65.7	0	0	---	0.00	29.964 
08:55	73.7	73.7	73.7	73	64.5	0	1	270	0.00	29.964 
09:00	74.6	74.6	74.6	72	65.0	0	0	---	0.00	29.964 
09:05	75.3	75.3	76.9	71	65.2	0	1	270	0.00	29.964 
09:10	75.6	75.6	77.2	70	65.1	0	2	270	0.00	29.964 
09:15	76.0	76.0	77.7	68	64.7	0	2	270	0.00	29.964 
09:20	76.7	76.7	78.5	66	64.5	0	1	270	0.00	29.964 
09:25	77.4	77.4	79.2	65	64.7	0	2	270	0.00	29.964 
09:30	77.9	77.9	79.7	64	64.7	0	1	270	0.00	29.960 
09:35	78.5	78.5	80.3	62	64.4	0	2	270	0.00	29.960 
09:40	79.0	79.0	80.8	61	64.4	0	3	270	0.00	29.960 
09:45	79.8	79.8	81.6	60	64.7	0	1	90	0.00	29.960 
09:50	80.3	80.3	82.1	59	64.6	0	2	90	0.00	29.960 
09:55	80.7	80.7	82.5	59	65.0	0	2	90	0.00	29.960 
10:00	81.1	81.1	82.9	58	64.9	0	2	90	0.00	29.960 
10:05	81.1	81.1	82.9	58	64.9	0	1	90	0.00	29.960 
10:10	81.2	81.2	83.0	58	65.0	0	2	90	0.00	29.960 
10:15	81.4	81.4	83.3	58	65.2	0	1	90	0.00	29.962 
10:20	81.6	81.6	83.5	58	65.4	0	0	---	0.00	29.962 
10:25	82.0	82.0	83.9	57	65.2	0	1	90	0.00	29.962 
10:30	82.4	82.4	84.4	57	65.6	0	0	---	0.00	29.963 
10:35	82.8	82.8	84.6	55	65.0	0	1	90	0.00	29.963 
10:40	83.4	83.4	85.4	55	65.5	0	1	90	0.00	29.963 
10:45	83.8	83.8	85.3	52	64.3	0	3	90	0.00	29.963 
10:50	84.1	84.1	86.2	54	65.6	1	5	90	0.00	29.963 
10:55	84.5	84.5	86.3	52	64.9	0	1	112	0.00	29.963 
11:00	84.5	84.5	86.3	52	64.9	0	2	112	0.00	29.968 
11:05	84.7	84.7	86.5	52	65.1	1	2	112	0.00	29.968 
11:10	84.7	84.7	86.8	53	65.6	0	2	112	0.00	29.968 
11:15	85.3	85.3	86.9	50	64.5	0	2	112	0.00	29.968 
11:20	85.5	85.5	87.4	51	65.3	0	2	112	0.00	29.968 
11:25	85.7	85.7	87.4	50	64.9	1	2	112	0.00	29.968 
11:30	85.7	85.7	87.2	49	64.3	1	3	112	0.00	29.969 
11:35	85.9	85.9	88.0	51	65.6	0	2	112	0.00	29.969 
11:40	86.1	86.1	88.6	52	66.4	0	2	112	0.00	29.969 
11:45	86.5	86.5	88.6	50	65.6	0	3	112	0.00	29.968 
11:50	87.0	87.0	88.8	48	64.9	1	4	112	0.00	29.968 
11:55	87.2	87.2	88.5	46	63.9	1	5	270	0.00	29.968 
12:00	87.4	87.4	89.1	47	64.7	1	3	225	0.00	29.964 
12:05	87.4	87.4	88.8	46	64.0	1	4	248	0.00	29.964 
12:10	87.4	87.4	89.1	47	64.7	1	4	248	0.00	29.964 
12:15	87.8	87.8	90.0	48	65.6	1	2	248	0.00	29.961 
12:20	88.4	88.4	90.3	46	64.9	1	4	248	0.00	29.961 
12:25	88.6	88.6	89.6	43	63.2	1	4	270	0.00	29.961 
12:30	89.0	89.0	89.6	41	62.2	1	4	292	0.00	29.957 
12:35	89.5	89.5	91.3	44	64.7	0	2	292	0.00	29.957 
12:40	90.1	90.1	91.5	42	63.9	2	6	90	0.00	29.957 
12:45	90.1	90.1	91.9	43	64.5	1	4	90	0.00	29.955 
12:50	90.1	90.1	91.5	42	63.9	1	4	315	0.00	29.955 
12:55	89.3	89.3	91.0	44	64.5	2	4	292	0.00	29.955 
13:00	89.3	89.3	90.6	43	63.8	1	3	248	0.00	29.956 
13:05	89.3	89.3	90.6	43	63.8	1	4	270	0.00	29.956 
13:10	89.7	89.7	91.3	43	64.2	1	4	270	0.00	29.956 
13:15	90.1	90.1	91.5	42	63.9	2	5	112	0.00	29.950 
13:20	90.3	90.3	91.8	42	64.0	2	7	112	0.00	29.950 
13:25	90.1	90.1	91.2	41	63.2	3	6	68	0.00	29.950 
13:30	89.5	89.5	91.0	43	64.0	2	5	90	0.00	29.948 
13:35	89.7	89.7	90.9	42	63.5	2	7	112	0.00	29.948 
13:40	89.9	89.9	91.6	43	64.4	1	2	292	0.00	29.948 
13:45	90.5	90.5	91.8	41	63.5	1	5	112	0.00	29.940 
13:50	90.7	90.7	92.1	41	63.7	1	4	90	0.00	29.940 
13:55	90.5	90.5	91.8	41	63.5	1	4	338	0.00	29.940 
14:00	90.5	90.5	92.5	43	64.9	1	3	45	0.00	29.930 
14:05	91.0	91.0	93.0	42	64.7	1	4	270	0.00	29.930 
14:10	90.3	90.3	91.5	41	63.4	1	2	270	0.00	29.930 
14:15	90.3	90.3	91.8	42	64.0	2	4	68	0.00	29.929 
14:20	90.1	90.1	91.5	42	63.9	1	5	292	0.00	29.929 
14:25	90.3	90.3	91.8	42	64.0	1	6	68	0.00	29.929 
14:30	90.5	90.5	92.2	42	64.2	1	3	248	0.00	29.925 
14:35	90.5	90.5	92.2	42	64.2	2	5	112	0.00	29.925 
14:40	90.5	90.5	92.5	43	64.9	2	7	90	0.00	29.925 
14:45	90.7	90.7	92.5	42	64.4	1	4	270	0.00	29.921 
14:50	91.0	91.0	93.0	42	64.7	1	4	90	0.00	29.921 
14:55	91.4	91.4	94.0	43	65.7	1	2	90	0.00	29.921 
15:00	91.6	91.6	93.9	42	65.2	2	4	90	0.00	29.914 
15:05	91.4	91.4	93.2	41	64.3	1	3	90	0.00	29.914 
15:10	91.0	91.0	93.4	43	65.4	1	5	248	0.00	29.914 
15:15	90.7	90.7	92.9	43	65.1	1	4	90	0.00	29.910 
15:20	90.5	90.5	92.5	43	64.9	1	3	90	0.00	29.910 
15:25	90.5	90.5	92.5	43	64.9	1	5	90	0.00	29.910 
15:30	90.1	90.1	92.3	44	65.2	2	5	90	0.00	29.902 
15:35	89.9	89.9	92.3	45	65.7	2	5	90	0.00	29.902 
15:40	90.1	90.1	91.9	43	64.5	1	6	112	0.00	29.902 
15:45	90.5	90.5	92.5	43	64.9	1	3	90	0.00	29.892 
15:50	90.7	90.7	91.4	39	62.3	2	4	90	0.00	29.892 
15:55	90.7	90.7	92.9	43	65.1	2	7	90	0.00	29.892 
16:00	90.7	90.7	92.5	42	64.4	1	4	112	0.00	29.889 
16:05	90.5	90.5	92.5	43	64.9	1	3	270	0.00	29.889 
16:10	90.7	90.7	92.5	42	64.4	1	3	338	0.00	29.889 
16:15	90.3	90.3	92.2	43	64.7	2	4	270	0.00	29.885 
16:20	90.3	90.3	92.2	43	64.7	1	3	68	0.00	29.885 
16:25	90.5	90.5	91.8	41	63.5	1	3	68	0.00	29.885 
16:30	90.7	90.7	92.5	42	64.4	1	3	90	0.00	29.880 
16:35	91.2	91.2	92.9	41	64.2	0	2	90	0.00	29.880 
16:40	91.6	91.6	93.9	42	65.2	1	4	90	0.00	29.880 
16:45	91.4	91.4	94.0	43	65.7	2	5	90	0.00	29.882 
16:50	91.4	91.4	94.0	43	65.7	0	2	68	0.00	29.882 
16:55	91.4	91.4	93.6	42	65.0	1	5	270	0.00	29.882 
17:00	91.0	91.0	93.4	43	65.4	2	4	90	0.00	29.883 
17:05	91.0	91.0	93.4	43	65.4	1	4	68	0.00	29.883 
17:10	90.5	90.5	92.5	43	64.9	2	5	90	0.00	29.883 
17:15	90.1	90.1	92.3	44	65.2	1	4	112	0.00	29.892 
17:20	89.9	89.9	91.2	42	63.7	1	4	248	0.00	29.892 
17:25	89.7	89.7	91.3	43	64.2	1	3	292	0.00	29.892 
17:30	89.9	89.9	91.2	42	63.7	2	5	90	0.00	29.891 
17:35	89.5	89.5	90.3	41	62.6	1	4	292	0.00	29.891 
17:40	89.3	89.3	90.6	43	63.8	1	4	90	0.00	29.891 
17:45	89.3	89.3	90.6	43	63.8	1	4	90	0.00	29.882 
17:50	89.0	89.0	89.9	42	62.9	1	4	135	0.00	29.882 
17:55	89.0	89.0	89.9	42	62.9	1	3	0	0.00	29.882 
18:00	88.8	88.8	89.9	43	63.4	1	4	90	0.00	29.865 
18:05	88.6	88.6	89.6	43	63.2	1	2	90	0.00	29.865 
18:10	88.4	88.4	89.3	43	63.0	1	6	135	0.00	29.865 
18:15	88.0	88.0	88.7	43	62.7	1	3	68	0.00	29.854 
18:20	87.6	87.6	88.5	44	63.0	1	4	90	0.00	29.854 
18:25	87.4	87.4	87.9	43	62.1	1	5	112	0.00	29.854 
18:30	87.2	87.2	87.9	44	62.6	2	5	90	0.00	29.838 
18:35	87.0	87.0	87.6	44	62.4	1	6	90	0.00	29.838 
18:40	86.7	86.7	87.2	44	62.1	0	2	90	0.00	29.838 
18:45	86.5	86.5	87.2	45	62.6	1	5	158	0.00	29.830 
18:50	86.5	86.5	87.2	45	62.6	1	5	112	0.00	29.830 
18:55	86.3	86.3	87.2	46	63.0	0	1	225	0.00	29.830 
19:00	86.1	86.1	87.0	46	62.9	0	2	202	0.00	29.826 
19:05	86.1	86.1	87.2	47	63.5	0	2	180	0.00	29.826 
19:10	85.9	85.9	86.9	47	63.3	0	2	112	0.00	29.826 
19:15	85.9	85.9	86.9	47	63.3	0	2	112	0.00	29.830 
19:20	85.7	85.7	86.9	48	63.7	0	1	112	0.00	29.830 
19:25	85.5	85.5	86.9	49	64.1	0	2	112	0.00	29.830 
19:30	85.5	85.5	87.2	50	64.7	0	1	112	0.00	29.833 
19:35	85.3	85.3	86.9	50	64.5	0	1	112	0.00	29.833 
19:40	85.1	85.1	86.9	51	64.9	0	1	112	0.00	29.833 
19:45	84.9	84.9	86.8	52	65.3	0	1	112	0.00	29.833 
19:50	84.7	84.7	86.5	52	65.1	0	4	90	0.00	29.833 
19:55	84.3	84.3	86.2	53	65.3	0	1	90	0.00	29.833 
20:00	84.1	84.1	85.9	53	65.1	0	1	90	0.00	29.837 
20:05	84.0	84.0	86.0	54	65.5	0	3	90	0.00	29.837 
20:10	83.8	83.8	86.0	55	65.9	0	2	135	0.00	29.837 
20:15	83.4	83.4	85.6	56	66.0	0	1	135	0.00	29.833 
20:20	83.2	83.2	85.6	57	66.4	0	1	112	0.00	29.833 
20:25	82.8	82.8	85.0	57	66.0	0	1	112	0.00	29.833 
20:30	82.6	82.6	84.9	58	66.3	0	0	---	0.00	29.846 
20:35	82.2	82.2	84.5	59	66.4	0	1	112	0.00	29.846 
20:40	81.8	81.8	84.3	61	67.0	1	2	112	0.00	29.846 
20:45	81.4	81.4	83.8	61	66.6	0	2	112	0.00	29.848 
20:50	81.1	81.1	83.5	62	66.8	0	1	112	0.00	29.848 
20:55	80.9	80.9	83.2	62	66.6	0	1	112	0.00	29.848 
21:00	80.7	80.7	82.9	62	66.4	0	0	---	0.00	29.853 
21:05	80.5	80.5	82.8	63	66.7	0	0	---	0.00	29.853 
21:10	80.3	80.3	82.5	63	66.5	0	1	112	0.00	29.853 
21:15	80.1	80.1	82.3	63	66.3	0	0	---	0.00	29.852 
21:20	79.9	79.9	82.1	64	66.6	0	0	---	0.00	29.852 
21:25	79.8	79.8	82.1	65	67.0	0	0	---	0.00	29.852 
21:30	79.4	79.4	81.6	65	66.6	0	0	---	0.00	29.871 
21:35	79.2	79.2	81.4	66	66.8	0	0	---	0.00	29.871 
21:40	78.8	78.8	80.9	66	66.5	0	0	---	0.00	29.871 
21:45	78.6	78.6	80.7	67	66.7	0	0	---	0.00	29.861 
21:50	78.5	78.5	80.6	68	67.0	0	0	---	0.00	29.861 
21:55	78.3	78.3	80.3	68	66.8	0	0	---	0.00	29.861 
22:00	78.3	78.3	80.4	69	67.3	0	0	---	0.00	29.860 
22:05	78.1	78.1	80.1	69	67.1	0	0	---	0.00	29.860 
22:10	77.9	77.9	79.9	69	66.9	0	1	112	0.00	29.860 
22:15	77.9	77.9	79.9	70	67.3	0	0	---	0.00	29.855 
22:20	77.7	77.7	79.6	70	67.1	0	1	112	0.00	29.855 
22:25	77.6	77.6	79.5	70	67.0	0	1	112	0.00	29.855 
22:30	77.4	77.4	79.3	71	67.2	0	0	---	0.00	29.844 
22:35	77.4	77.4	79.3	71	67.2	0	1	112	0.00	29.844 
22:40	77.2	77.2	79.0	71	67.0	0	1	112	0.00	29.844 
22:45	77.2	77.2	79.0	72	67.5	0	2	112	0.00	29.839 
22:50	77.0	77.0	78.7	72	67.3	0	1	135	0.00	29.839 
22:55	76.8	76.8	78.5	72	67.1	0	1	135	0.00	29.839 
23:00	76.8	76.8	78.5	72	67.1	0	2	135	0.00	29.841 
23:05	76.8	76.8	78.5	71	66.7	0	2	68	0.00	29.841 
23:10	77.0	77.0	78.8	71	66.9	0	2	135	0.00	29.841 
23:15	77.0	77.0	78.8	70	66.4	0	2	135	0.00	29.829 
23:20	77.2	77.2	79.0	69	66.2	0	1	135	0.00	29.829 
23:25	77.0	77.0	78.8	69	66.0	0	3	135	0.00	29.829 
23:30	77.0	77.0	78.8	69	66.0	1	4	90	0.00	29.826 
23:35	77.0	77.0	78.8	68	65.6	1	2	112	0.00	29.826 
23:40	77.0	77.0	78.8	68	65.6	1	2	112	0.00	29.826 
23:45	77.0	77.0	78.8	68	65.6	1	3	112	0.00	29.822 
23:50	76.8	76.8	78.6	68	65.4	1	4	90	0.00	29.822 
23:55	76.8	76.8	78.6	68	65.4	1	3	90	0.00	29.822 

CoCoRaHS
IN-AL-39
A2 Web Hosting
Creative Commons License
GoDaddy
search engine by freefind advanced

loaded 2018-11-12 20:18:02 • last modified 2010-11-18 10:43:29
Privacy PolicyDisclaimer
• wx.awcolley.com is powered by PmWiki v.2002016 •
• all content (unless otherwise noted) © 2018 A W Colley